sensor_id;sensor_type;location;lat;lon;timestamp;temperature;humidity
17938;DHT22;16051;53.024;8.630;2022-11-15T00:00:08;8.10;99.90
17938;DHT22;16051;53.024;8.630;2022-11-15T00:04:11;8.00;99.90
17938;DHT22;16051;53.024;8.630;2022-11-15T00:08:13;8.00;99.90
17938;DHT22;16051;53.024;8.630;2022-11-15T00:12:24;7.90;99.90
17938;DHT22;16051;53.024;8.630;2022-11-15T00:16:26;7.90;99.90
17938;DHT22;16051;53.024;8.630;2022-11-15T00:20:28;7.80;99.90
17938;DHT22;16051;53.024;8.630;2022-11-15T00:24:30;7.80;99.90
17938;DHT22;16051;53.024;8.630;2022-11-15T00:28:34;7.70;99.90
17938;DHT22;16051;53.024;8.630;2022-11-15T00:32:36;7.60;99.90
17938;DHT22;16051;53.024;8.630;2022-11-15T00:36:42;7.60;99.90
17938;DHT22;16051;53.024;8.630;2022-11-15T00:40:44;7.60;99.90
17938;DHT22;16051;53.024;8.630;2022-11-15T00:44:48;7.50;99.90
17938;DHT22;16051;53.024;8.630;2022-11-15T00:48:51;7.40;99.90
17938;DHT22;16051;53.024;8.630;2022-11-15T00:52:53;7.40;99.90
17938;DHT22;16051;53.024;8.630;2022-11-15T00:56:55;7.30;99.90
17938;DHT22;16051;53.024;8.630;2022-11-15T01:01:07;7.30;99.90
17938;DHT22;16051;53.024;8.630;2022-11-15T01:05:10;7.20;99.90
17938;DHT22;16051;53.024;8.630;2022-11-15T01:09:13;7.20;99.90
17938;DHT22;16051;53.024;8.630;2022-11-15T01:13:15;7.10;99.90
17938;DHT22;16051;53.024;8.630;2022-11-15T01:17:19;7.10;99.90
17938;DHT22;16051;53.024;8.630;2022-11-15T01:21:21;7.00;99.90
17938;DHT22;16051;53.024;8.630;2022-11-15T01:25:23;7.00;99.90
17938;DHT22;16051;53.024;8.630;2022-11-15T01:29:35;6.90;99.90
17938;DHT22;16051;53.024;8.630;2022-11-15T01:33:38;6.80;99.90
17938;DHT22;16051;53.024;8.630;2022-11-15T01:37:40;6.80;99.90
17938;DHT22;16051;53.024;8.630;2022-11-15T01:41:43;6.70;99.90
17938;DHT22;16051;53.024;8.630;2022-11-15T01:45:50;6.70;99.90
17938;DHT22;16051;53.024;8.630;2022-11-15T01:50:04;6.70;99.90
17938;DHT22;16051;53.024;8.630;2022-11-15T01:54:14;6.70;99.90
17938;DHT22;16051;53.024;8.630;2022-11-15T01:58:21;6.70;99.90
17938;DHT22;16051;53.024;8.630;2022-11-15T02:02:24;6.70;99.90
17938;DHT22;16051;53.024;8.630;2022-11-15T02:06:27;6.70;99.90
17938;DHT22;16051;53.024;8.630;2022-11-15T02:10:40;6.80;99.90
17938;DHT22;16051;53.024;8.630;2022-11-15T02:14:45;6.80;99.90
17938;DHT22;16051;53.024;8.630;2022-11-15T02:18:57;6.90;99.90
17938;DHT22;16051;53.024;8.630;2022-11-15T02:23:43;7.00;99.90
17938;DHT22;16051;53.024;8.630;2022-11-15T02:28:42;7.00;99.90
17938;DHT22;16051;53.024;8.630;2022-11-15T02:32:54;7.10;99.90
17938;DHT22;16051;53.024;8.630;2022-11-15T02:37:03;7.20;99.90
17938;DHT22;16051;53.024;8.630;2022-11-15T02:41:25;7.20;99.90
17938;DHT22;16051;53.024;8.630;2022-11-15T02:45:50;7.30;99.90
17938;DHT22;16051;53.024;8.630;2022-11-15T02:50:06;7.30;99.90
17938;DHT22;16051;53.024;8.630;2022-11-15T02:54:12;7.40;99.90
17938;DHT22;16051;53.024;8.630;2022-11-15T02:58:37;7.40;99.90
17938;DHT22;16051;53.024;8.630;2022-11-15T03:07:41;7.50;99.90
17938;DHT22;16051;53.024;8.630;2022-11-15T03:11:57;7.60;99.90
17938;DHT22;16051;53.024;8.630;2022-11-15T03:16:06;7.60;99.90
17938;DHT22;16051;53.024;8.630;2022-11-15T03:20:15;7.70;99.90
17938;DHT22;16051;53.024;8.630;2022-11-15T03:24:21;7.80;99.90
17938;DHT22;16051;53.024;8.630;2022-11-15T03:28:31;7.80;99.90
17938;DHT22;16051;53.024;8.630;2022-11-15T03:32:39;7.80;99.90
17938;DHT22;16051;53.024;8.630;2022-11-15T03:36:47;7.90;99.90
17938;DHT22;16051;53.024;8.630;2022-11-15T03:40:55;7.90;99.90
17938;DHT22;16051;53.024;8.630;2022-11-15T03:45:03;8.00;99.90
17938;DHT22;16051;53.024;8.630;2022-11-15T03:49:19;8.00;99.90
17938;DHT22;16051;53.024;8.630;2022-11-15T03:53:27;8.00;99.90
17938;DHT22;16051;53.024;8.630;2022-11-15T03:57:32;8.10;99.90
17938;DHT22;16051;53.024;8.630;2022-11-15T04:01:34;8.20;99.90
17938;DHT22;16051;53.024;8.630;2022-11-15T04:05:36;8.20;99.90
17938;DHT22;16051;53.024;8.630;2022-11-15T04:09:38;8.20;99.90
17938;DHT22;16051;53.024;8.630;2022-11-15T04:14:27;8.30;99.90
17938;DHT22;16051;53.024;8.630;2022-11-15T04:18:29;8.30;99.90
17938;DHT22;16051;53.024;8.630;2022-11-15T04:22:31;8.30;99.90
17938;DHT22;16051;53.024;8.630;2022-11-15T04:26:50;8.40;99.90
17938;DHT22;16051;53.024;8.630;2022-11-15T04:30:54;8.40;99.90
17938;DHT22;16051;53.024;8.630;2022-11-15T04:34:56;8.40;99.90
17938;DHT22;16051;53.024;8.630;2022-11-15T04:38:58;8.40;99.90
17938;DHT22;16051;53.024;8.630;2022-11-15T04:43:00;8.50;99.90
17938;DHT22;16051;53.024;8.630;2022-11-15T04:47:04;8.50;99.90
17938;DHT22;16051;53.024;8.630;2022-11-15T04:51:06;8.50;99.90
17938;DHT22;16051;53.024;8.630;2022-11-15T04:55:09;8.60;99.90
17938;DHT22;16051;53.024;8.630;2022-11-15T04:59:15;8.60;99.90
17938;DHT22;16051;53.024;8.630;2022-11-15T05:03:18;8.60;99.90
17938;DHT22;16051;53.024;8.630;2022-11-15T05:07:38;8.60;99.90
17938;DHT22;16051;53.024;8.630;2022-11-15T05:11:40;8.70;99.90
17938;DHT22;16051;53.024;8.630;2022-11-15T05:15:43;8.60;99.90
17938;DHT22;16051;53.024;8.630;2022-11-15T05:19:46;8.70;99.90
17938;DHT22;16051;53.024;8.630;2022-11-15T05:23:48;8.70;99.90
17938;DHT22;16051;53.024;8.630;2022-11-15T05:27:51;8.70;99.90
17938;DHT22;16051;53.024;8.630;2022-11-15T05:37:10;8.70;99.90
17938;DHT22;16051;53.024;8.630;2022-11-15T05:41:18;8.80;99.90
17938;DHT22;16051;53.024;8.630;2022-11-15T05:45:23;8.80;99.90
17938;DHT22;16051;53.024;8.630;2022-11-15T05:49:27;8.80;99.90
17938;DHT22;16051;53.024;8.630;2022-11-15T05:54:02;8.80;99.90
17938;DHT22;16051;53.024;8.630;2022-11-15T05:58:05;8.90;99.90
17938;DHT22;16051;53.024;8.630;2022-11-15T06:02:07;8.90;99.90
17938;DHT22;16051;53.024;8.630;2022-11-15T06:06:09;8.90;99.90
17938;DHT22;16051;53.024;8.630;2022-11-15T06:10:17;8.90;99.90
17938;DHT22;16051;53.024;8.630;2022-11-15T06:14:19;8.90;99.90
17938;DHT22;16051;53.024;8.630;2022-11-15T06:18:21;9.00;99.90
17938;DHT22;16051;53.024;8.630;2022-11-15T06:22:23;9.00;99.90
17938;DHT22;16051;53.024;8.630;2022-11-15T06:26:27;9.00;99.90
17938;DHT22;16051;53.024;8.630;2022-11-15T06:30:30;9.00;99.90
17938;DHT22;16051;53.024;8.630;2022-11-15T06:34:32;10.00;99.90
17938;DHT22;16051;53.024;8.630;2022-11-15T06:38:36;10.20;99.90
17938;DHT22;16051;53.024;8.630;2022-11-15T06:42:40;9.80;99.90
17938;DHT22;16051;53.024;8.630;2022-11-15T06:46:42;9.60;99.90
17938;DHT22;16051;53.024;8.630;2022-11-15T06:51:08;9.50;99.90
17938;DHT22;16051;53.024;8.630;2022-11-15T06:55:10;9.40;99.90
17938;DHT22;16051;53.024;8.630;2022-11-15T06:59:14;9.40;99.90
17938;DHT22;16051;53.024;8.630;2022-11-15T07:03:16;9.30;99.90
17938;DHT22;16051;53.024;8.630;2022-11-15T07:07:35;9.40;99.90
17938;DHT22;16051;53.024;8.630;2022-11-15T07:11:37;9.40;99.90
17938;DHT22;16051;53.024;8.630;2022-11-15T07:15:41;9.40;99.90
17938;DHT22;16051;53.024;8.630;2022-11-15T07:19:51;9.40;99.90
17938;DHT22;16051;53.024;8.630;2022-11-15T07:24:20;9.40;99.90
17938;DHT22;16051;53.024;8.630;2022-11-15T07:28:22;9.50;99.90
17938;DHT22;16051;53.024;8.630;2022-11-15T07:32:25;9.50;99.90
17938;DHT22;16051;53.024;8.630;2022-11-15T07:36:28;9.50;99.90
17938;DHT22;16051;53.024;8.630;2022-11-15T07:40:31;9.70;99.90
17938;DHT22;16051;53.024;8.630;2022-11-15T07:44:33;9.80;99.90
17938;DHT22;16051;53.024;8.630;2022-11-15T07:48:37;9.80;99.90
17938;DHT22;16051;53.024;8.630;2022-11-15T07:52:40;9.90;99.90
17938;DHT22;16051;53.024;8.630;2022-11-15T07:56:42;9.90;99.90
17938;DHT22;16051;53.024;8.630;2022-11-15T08:00:45;10.00;99.90
17938;DHT22;16051;53.024;8.630;2022-11-15T08:04:48;10.10;99.90
17938;DHT22;16051;53.024;8.630;2022-11-15T08:08:52;10.10;99.90
17938;DHT22;16051;53.024;8.630;2022-11-15T08:12:59;10.20;99.90
17938;DHT22;16051;53.024;8.630;2022-11-15T08:17:01;10.50;99.90
17938;DHT22;16051;53.024;8.630;2022-11-15T08:21:05;10.40;99.90
17938;DHT22;16051;53.024;8.630;2022-11-15T08:25:11;10.40;99.90
17938;DHT22;16051;53.024;8.630;2022-11-15T08:29:13;10.40;99.90
17938;DHT22;16051;53.024;8.630;2022-11-15T08:33:17;10.60;99.90
17938;DHT22;16051;53.024;8.630;2022-11-15T08:37:20;10.60;99.90
17938;DHT22;16051;53.024;8.630;2022-11-15T08:41:27;10.70;99.90
17938;DHT22;16051;53.024;8.630;2022-11-15T08:45:41;10.70;99.90
17938;DHT22;16051;53.024;8.630;2022-11-15T08:49:43;10.80;99.90
17938;DHT22;16051;53.024;8.630;2022-11-15T08:53:56;10.80;99.90
17938;DHT22;16051;53.024;8.630;2022-11-15T08:57:58;10.90;99.90
17938;DHT22;16051;53.024;8.630;2022-11-15T09:02:00;10.90;99.90
17938;DHT22;16051;53.024;8.630;2022-11-15T09:06:02;11.00;99.90
17938;DHT22;16051;53.024;8.630;2022-11-15T09:10:07;11.00;99.90
17938;DHT22;16051;53.024;8.630;2022-11-15T09:14:12;11.20;99.90
17938;DHT22;16051;53.024;8.630;2022-11-15T09:18:15;11.40;99.90
17938;DHT22;16051;53.024;8.630;2022-11-15T09:22:17;11.40;99.90
17938;DHT22;16051;53.024;8.630;2022-11-15T09:26:24;11.40;99.90
17938;DHT22;16051;53.024;8.630;2022-11-15T09:30:26;11.40;99.90
17938;DHT22;16051;53.024;8.630;2022-11-15T09:34:28;11.50;99.90
17938;DHT22;16051;53.024;8.630;2022-11-15T09:38:31;11.60;99.90
17938;DHT22;16051;53.024;8.630;2022-11-15T09:43:03;11.90;99.90
17938;DHT22;16051;53.024;8.630;2022-11-15T09:47:32;12.10;99.90
17938;DHT22;16051;53.024;8.630;2022-11-15T09:51:44;12.10;99.90
17938;DHT22;16051;53.024;8.630;2022-11-15T09:55:55;12.20;99.90
17938;DHT22;16051;53.024;8.630;2022-11-15T10:00:18;12.40;99.90
17938;DHT22;16051;53.024;8.630;2022-11-15T10:04:22;12.50;99.90
17938;DHT22;16051;53.024;8.630;2022-11-15T10:08:54;12.60;99.90
17938;DHT22;16051;53.024;8.630;2022-11-15T10:13:06;12.80;99.90
17938;DHT22;16051;53.024;8.630;2022-11-15T10:17:33;12.90;99.90
17938;DHT22;16051;53.024;8.630;2022-11-15T10:21:53;12.90;99.90
17938;DHT22;16051;53.024;8.630;2022-11-15T10:26:08;12.90;99.90
17938;DHT22;16051;53.024;8.630;2022-11-15T10:30:17;13.00;99.90
17938;DHT22;16051;53.024;8.630;2022-11-15T10:34:22;12.90;99.90
17938;DHT22;16051;53.024;8.630;2022-11-15T10:38:25;13.00;99.90
17938;DHT22;16051;53.024;8.630;2022-11-15T10:42:28;13.20;99.90
17938;DHT22;16051;53.024;8.630;2022-11-15T10:46:31;13.30;99.90
17938;DHT22;16051;53.024;8.630;2022-11-15T10:50:34;13.60;99.90
17938;DHT22;16051;53.024;8.630;2022-11-15T10:54:40;13.50;99.90
17938;DHT22;16051;53.024;8.630;2022-11-15T10:58:51;13.70;99.90
17938;DHT22;16051;53.024;8.630;2022-11-15T11:02:58;13.80;99.90
17938;DHT22;16051;53.024;8.630;2022-11-15T11:07:24;14.00;99.90
17938;DHT22;16051;53.024;8.630;2022-11-15T11:11:45;14.00;99.90
17938;DHT22;16051;53.024;8.630;2022-11-15T11:15:53;14.10;99.90
17938;DHT22;16051;53.024;8.630;2022-11-15T11:20:07;14.40;99.90
17938;DHT22;16051;53.024;8.630;2022-11-15T11:24:25;14.70;99.90
17938;DHT22;16051;53.024;8.630;2022-11-15T11:28:41;14.90;99.90
17938;DHT22;16051;53.024;8.630;2022-11-15T11:33:01;14.90;99.90
17938;DHT22;16051;53.024;8.630;2022-11-15T11:37:13;14.80;99.90
17938;DHT22;16051;53.024;8.630;2022-11-15T11:41:37;14.70;99.90
17938;DHT22;16051;53.024;8.630;2022-11-15T11:45:55;14.80;99.90
17938;DHT22;16051;53.024;8.630;2022-11-15T11:50:24;14.80;99.90
17938;DHT22;16051;53.024;8.630;2022-11-15T11:54:34;14.90;99.90
17938;DHT22;16051;53.024;8.630;2022-11-15T11:58:44;15.10;99.90
17938;DHT22;16051;53.024;8.630;2022-11-15T12:02:58;15.40;99.90
17938;DHT22;16051;53.024;8.630;2022-11-15T12:07:17;15.20;99.90
17938;DHT22;16051;53.024;8.630;2022-11-15T12:11:29;15.50;99.90
17938;DHT22;16051;53.024;8.630;2022-11-15T12:15:43;15.80;99.90
17938;DHT22;16051;53.024;8.630;2022-11-15T12:19:49;16.20;99.90
17938;DHT22;16051;53.024;8.630;2022-11-15T12:23:53;16.10;99.90
17938;DHT22;16051;53.024;8.630;2022-11-15T12:28:06;16.20;99.90
17938;DHT22;16051;53.024;8.630;2022-11-15T12:32:33;16.20;99.90
17938;DHT22;16051;53.024;8.630;2022-11-15T12:36:39;16.20;99.90
17938;DHT22;16051;53.024;8.630;2022-11-15T12:45:27;16.10;99.90
17938;DHT22;16051;53.024;8.630;2022-11-15T12:49:48;16.20;99.90
17938;DHT22;16051;53.024;8.630;2022-11-15T12:53:50;16.80;99.90
17938;DHT22;16051;53.024;8.630;2022-11-15T12:57:56;16.90;99.90
17938;DHT22;16051;53.024;8.630;2022-11-15T13:02:31;16.90;99.90
17938;DHT22;16051;53.024;8.630;2022-11-15T13:06:40;16.90;99.90
17938;DHT22;16051;53.024;8.630;2022-11-15T13:10:43;16.80;99.90
17938;DHT22;16051;53.024;8.630;2022-11-15T13:14:50;16.80;99.90
17938;DHT22;16051;53.024;8.630;2022-11-15T13:18:54;16.80;99.90
17938;DHT22;16051;53.024;8.630;2022-11-15T13:23:07;16.60;99.90
17938;DHT22;16051;53.024;8.630;2022-11-15T13:27:19;16.50;99.90
17938;DHT22;16051;53.024;8.630;2022-11-15T13:31:34;17.40;99.90
17938;DHT22;16051;53.024;8.630;2022-11-15T13:35:40;19.10;99.90
17938;DHT22;16051;53.024;8.630;2022-11-15T13:39:44;20.30;99.90
17938;DHT22;16051;53.024;8.630;2022-11-15T13:43:47;20.90;99.90
17938;DHT22;16051;53.024;8.630;2022-11-15T13:47:56;21.70;99.90
17938;DHT22;16051;53.024;8.630;2022-11-15T13:52:00;22.60;99.90
17938;DHT22;16051;53.024;8.630;2022-11-15T13:56:07;22.50;99.90
17938;DHT22;16051;53.024;8.630;2022-11-15T14:00:39;22.40;99.90
17938;DHT22;16051;53.024;8.630;2022-11-15T14:04:47;21.30;99.90
17938;DHT22;16051;53.024;8.630;2022-11-15T14:09:04;20.00;99.90
17938;DHT22;16051;53.024;8.630;2022-11-15T14:13:31;19.40;99.90
17938;DHT22;16051;53.024;8.630;2022-11-15T14:17:37;18.80;99.90
17938;DHT22;16051;53.024;8.630;2022-11-15T14:22:09;18.00;99.90
17938;DHT22;16051;53.024;8.630;2022-11-15T14:26:29;17.30;99.90
17938;DHT22;16051;53.024;8.630;2022-11-15T14:30:34;16.90;99.90
17938;DHT22;16051;53.024;8.630;2022-11-15T14:34:39;16.80;99.90
17938;DHT22;16051;53.024;8.630;2022-11-15T14:38:41;16.40;99.90
17938;DHT22;16051;53.024;8.630;2022-11-15T14:42:46;16.10;99.90
17938;DHT22;16051;53.024;8.630;2022-11-15T14:46:53;15.80;99.90
17938;DHT22;16051;53.024;8.630;2022-11-15T14:50:56;15.60;99.90
17938;DHT22;16051;53.024;8.630;2022-11-15T14:55:00;15.40;99.90
17938;DHT22;16051;53.024;8.630;2022-11-15T14:59:03;15.20;99.90
17938;DHT22;16051;53.024;8.630;2022-11-15T15:03:06;15.00;99.90
17938;DHT22;16051;53.024;8.630;2022-11-15T15:07:09;14.70;99.90
17938;DHT22;16051;53.024;8.630;2022-11-15T15:11:21;14.60;99.90
17938;DHT22;16051;53.024;8.630;2022-11-15T15:15:28;14.40;99.90
17938;DHT22;16051;53.024;8.630;2022-11-15T15:19:34;14.20;99.90
17938;DHT22;16051;53.024;8.630;2022-11-15T15:23:36;14.00;99.90
17938;DHT22;16051;53.024;8.630;2022-11-15T15:27:39;13.90;99.90
17938;DHT22;16051;53.024;8.630;2022-11-15T15:31:41;13.70;99.90
17938;DHT22;16051;53.024;8.630;2022-11-15T15:35:44;13.50;99.90
17938;DHT22;16051;53.024;8.630;2022-11-15T15:39:46;13.40;99.90
17938;DHT22;16051;53.024;8.630;2022-11-15T15:43:48;13.20;99.90
17938;DHT22;16051;53.024;8.630;2022-11-15T15:47:51;13.10;99.90
17938;DHT22;16051;53.024;8.630;2022-11-15T15:51:55;12.90;99.90
17938;DHT22;16051;53.024;8.630;2022-11-15T15:55:57;12.80;99.90
17938;DHT22;16051;53.024;8.630;2022-11-15T15:59:59;12.70;99.90
17938;DHT22;16051;53.024;8.630;2022-11-15T16:04:01;12.60;99.90
17938;DHT22;16051;53.024;8.630;2022-11-15T16:08:05;12.40;99.90
17938;DHT22;16051;53.024;8.630;2022-11-15T16:12:07;12.40;99.90
17938;DHT22;16051;53.024;8.630;2022-11-15T16:16:13;12.20;99.90
17938;DHT22;16051;53.024;8.630;2022-11-15T16:20:34;12.20;99.90
17938;DHT22;16051;53.024;8.630;2022-11-15T16:24:40;12.10;99.90
17938;DHT22;16051;53.024;8.630;2022-11-15T16:28:42;12.00;99.90
17938;DHT22;16051;53.024;8.630;2022-11-15T16:32:44;12.00;99.90
17938;DHT22;16051;53.024;8.630;2022-11-15T16:36:47;11.90;99.90
17938;DHT22;16051;53.024;8.630;2022-11-15T16:40:51;11.90;99.90
17938;DHT22;16051;53.024;8.630;2022-11-15T16:44:53;11.90;99.90
17938;DHT22;16051;53.024;8.630;2022-11-15T16:48:59;11.90;99.90
17938;DHT22;16051;53.024;8.630;2022-11-15T16:53:01;11.80;99.90
17938;DHT22;16051;53.024;8.630;2022-11-15T16:57:04;11.80;99.90
17938;DHT22;16051;53.024;8.630;2022-11-15T17:01:15;11.80;99.90
17938;DHT22;16051;53.024;8.630;2022-11-15T17:05:21;11.80;99.90
17938;DHT22;16051;53.024;8.630;2022-11-15T17:09:24;11.90;99.90
17938;DHT22;16051;53.024;8.630;2022-11-15T17:13:31;11.90;99.90
17938;DHT22;16051;53.024;8.630;2022-11-15T17:17:33;11.80;99.90
17938;DHT22;16051;53.024;8.630;2022-11-15T17:21:35;11.90;99.90
17938;DHT22;16051;53.024;8.630;2022-11-15T17:25:37;11.90;99.90
17938;DHT22;16051;53.024;8.630;2022-11-15T17:29:41;11.90;99.90
17938;DHT22;16051;53.024;8.630;2022-11-15T17:33:43;11.90;99.90
17938;DHT22;16051;53.024;8.630;2022-11-15T17:37:45;11.90;99.90
17938;DHT22;16051;53.024;8.630;2022-11-15T17:41:48;12.00;99.90
17938;DHT22;16051;53.024;8.630;2022-11-15T17:45:57;12.00;99.90
17938;DHT22;16051;53.024;8.630;2022-11-15T17:50:01;12.00;99.90
17938;DHT22;16051;53.024;8.630;2022-11-15T17:54:09;12.00;99.90
17938;DHT22;16051;53.024;8.630;2022-11-15T17:58:14;12.00;99.90
17938;DHT22;16051;53.024;8.630;2022-11-15T18:02:19;12.10;99.90
17938;DHT22;16051;53.024;8.630;2022-11-15T18:06:23;12.10;99.90
17938;DHT22;16051;53.024;8.630;2022-11-15T18:10:31;12.10;99.90
17938;DHT22;16051;53.024;8.630;2022-11-15T18:14:33;12.10;99.90
17938;DHT22;16051;53.024;8.630;2022-11-15T18:18:37;12.10;99.90
17938;DHT22;16051;53.024;8.630;2022-11-15T18:22:45;12.10;99.90
17938;DHT22;16051;53.024;8.630;2022-11-15T18:26:47;12.10;99.90
17938;DHT22;16051;53.024;8.630;2022-11-15T18:30:49;12.10;99.90
17938;DHT22;16051;53.024;8.630;2022-11-15T18:34:53;12.10;99.90
17938;DHT22;16051;53.024;8.630;2022-11-15T18:38:56;12.10;99.90
17938;DHT22;16051;53.024;8.630;2022-11-15T18:43:34;12.10;99.90
17938;DHT22;16051;53.024;8.630;2022-11-15T18:47:36;12.10;99.90
17938;DHT22;16051;53.024;8.630;2022-11-15T18:51:42;12.10;99.90
17938;DHT22;16051;53.024;8.630;2022-11-15T18:55:48;12.10;99.90
17938;DHT22;16051;53.024;8.630;2022-11-15T18:59:57;12.10;99.90
17938;DHT22;16051;53.024;8.630;2022-11-15T19:04:03;12.10;99.90
17938;DHT22;16051;53.024;8.630;2022-11-15T19:08:14;12.20;99.90
17938;DHT22;16051;53.024;8.630;2022-11-15T19:12:16;12.20;99.90
17938;DHT22;16051;53.024;8.630;2022-11-15T19:16:18;12.10;99.90
17938;DHT22;16051;53.024;8.630;2022-11-15T19:20:21;12.10;99.90
17938;DHT22;16051;53.024;8.630;2022-11-15T19:24:24;12.20;99.90
17938;DHT22;16051;53.024;8.630;2022-11-15T19:28:27;12.10;99.90
17938;DHT22;16051;53.024;8.630;2022-11-15T19:32:30;12.20;99.90
17938;DHT22;16051;53.024;8.630;2022-11-15T19:36:35;12.20;99.90
17938;DHT22;16051;53.024;8.630;2022-11-15T19:40:41;12.20;99.90
17938;DHT22;16051;53.024;8.630;2022-11-15T19:44:43;12.10;99.90
17938;DHT22;16051;53.024;8.630;2022-11-15T19:48:46;12.10;99.90
17938;DHT22;16051;53.024;8.630;2022-11-15T19:52:49;12.10;99.90
17938;DHT22;16051;53.024;8.630;2022-11-15T19:56:54;12.10;99.90
17938;DHT22;16051;53.024;8.630;2022-11-15T20:01:03;12.10;99.90
17938;DHT22;16051;53.024;8.630;2022-11-15T20:05:16;12.10;99.90
17938;DHT22;16051;53.024;8.630;2022-11-15T20:09:32;12.10;99.90
17938;DHT22;16051;53.024;8.630;2022-11-15T20:13:36;12.10;99.90
17938;DHT22;16051;53.024;8.630;2022-11-15T20:17:41;12.10;99.90
17938;DHT22;16051;53.024;8.630;2022-11-15T20:21:43;12.10;99.90
17938;DHT22;16051;53.024;8.630;2022-11-15T20:25:54;12.10;99.90
17938;DHT22;16051;53.024;8.630;2022-11-15T20:30:06;12.10;99.90
17938;DHT22;16051;53.024;8.630;2022-11-15T20:34:10;12.10;99.90
17938;DHT22;16051;53.024;8.630;2022-11-15T20:38:34;12.10;99.90
17938;DHT22;16051;53.024;8.630;2022-11-15T20:42:37;12.10;99.90
17938;DHT22;16051;53.024;8.630;2022-11-15T20:46:41;12.10;99.90
17938;DHT22;16051;53.024;8.630;2022-11-15T20:50:46;12.00;99.90
17938;DHT22;16051;53.024;8.630;2022-11-15T20:54:57;12.00;99.90
17938;DHT22;16051;53.024;8.630;2022-11-15T20:58:59;12.00;99.90
17938;DHT22;16051;53.024;8.630;2022-11-15T21:03:03;12.00;99.90
17938;DHT22;16051;53.024;8.630;2022-11-15T21:07:06;11.90;99.90
17938;DHT22;16051;53.024;8.630;2022-11-15T21:11:08;11.90;99.90
17938;DHT22;16051;53.024;8.630;2022-11-15T21:15:32;11.90;99.90
17938;DHT22;16051;53.024;8.630;2022-11-15T21:19:58;11.90;99.90
17938;DHT22;16051;53.024;8.630;2022-11-15T21:24:07;11.80;99.90
17938;DHT22;16051;53.024;8.630;2022-11-15T21:28:10;11.80;99.90
17938;DHT22;16051;53.024;8.630;2022-11-15T21:32:12;11.80;99.90
17938;DHT22;16051;53.024;8.630;2022-11-15T21:36:16;11.80;99.90
17938;DHT22;16051;53.024;8.630;2022-11-15T21:40:18;11.80;99.90
17938;DHT22;16051;53.024;8.630;2022-11-15T21:44:22;11.80;99.90
17938;DHT22;16051;53.024;8.630;2022-11-15T21:48:24;11.80;99.90
17938;DHT22;16051;53.024;8.630;2022-11-15T21:52:29;11.90;99.90
17938;DHT22;16051;53.024;8.630;2022-11-15T21:56:33;11.90;99.90
17938;DHT22;16051;53.024;8.630;2022-11-15T22:00:35;11.90;99.90
17938;DHT22;16051;53.024;8.630;2022-11-15T22:04:55;11.80;99.90
17938;DHT22;16051;53.024;8.630;2022-11-15T22:08:58;11.90;99.90
17938;DHT22;16051;53.024;8.630;2022-11-15T22:13:00;11.80;99.90
17938;DHT22;16051;53.024;8.630;2022-11-15T22:17:03;11.80;99.90
17938;DHT22;16051;53.024;8.630;2022-11-15T22:21:09;11.80;99.90
17938;DHT22;16051;53.024;8.630;2022-11-15T22:25:14;11.80;99.90
17938;DHT22;16051;53.024;8.630;2022-11-15T22:29:16;11.90;99.90
17938;DHT22;16051;53.024;8.630;2022-11-15T22:33:21;11.80;99.90
17938;DHT22;16051;53.024;8.630;2022-11-15T22:37:27;11.90;99.90
17938;DHT22;16051;53.024;8.630;2022-11-15T22:41:31;11.80;99.90
17938;DHT22;16051;53.024;8.630;2022-11-15T22:45:33;11.80;99.90
17938;DHT22;16051;53.024;8.630;2022-11-15T22:50:07;11.90;99.90
17938;DHT22;16051;53.024;8.630;2022-11-15T22:54:10;11.90;99.90
17938;DHT22;16051;53.024;8.630;2022-11-15T22:58:13;11.80;99.90
17938;DHT22;16051;53.024;8.630;2022-11-15T23:02:16;11.90;99.90
17938;DHT22;16051;53.024;8.630;2022-11-15T23:06:20;11.90;99.90
17938;DHT22;16051;53.024;8.630;2022-11-15T23:10:22;11.80;99.90
17938;DHT22;16051;53.024;8.630;2022-11-15T23:14:43;11.90;99.90
17938;DHT22;16051;53.024;8.630;2022-11-15T23:18:45;11.80;99.90
17938;DHT22;16051;53.024;8.630;2022-11-15T23:22:48;11.90;99.90
17938;DHT22;16051;53.024;8.630;2022-11-15T23:26:53;11.90;99.90
17938;DHT22;16051;53.024;8.630;2022-11-15T23:31:02;11.90;99.90
17938;DHT22;16051;53.024;8.630;2022-11-15T23:35:59;11.80;99.90
17938;DHT22;16051;53.024;8.630;2022-11-15T23:40:01;11.80;99.90
17938;DHT22;16051;53.024;8.630;2022-11-15T23:44:04;11.90;99.90
17938;DHT22;16051;53.024;8.630;2022-11-15T23:48:20;11.80;99.90
17938;DHT22;16051;53.024;8.630;2022-11-15T23:52:23;11.80;99.90
17938;DHT22;16051;53.024;8.630;2022-11-15T23:56:25;11.80;99.90
